sensor_id;sensor_type;location;lat;lon;timestamp;temperature;humidity
72126;SHT31;59999;51.676;22.650;2024-02-21T00:02:20;5.29;90.05
72126;SHT31;59999;51.676;22.650;2024-02-21T00:04:46;5.30;90.18
72126;SHT31;59999;51.676;22.650;2024-02-21T00:07:12;5.32;90.20
72126;SHT31;59999;51.676;22.650;2024-02-21T00:09:38;5.33;90.25
72126;SHT31;59999;51.676;22.650;2024-02-21T00:12:04;5.30;90.27
72126;SHT31;59999;51.676;22.650;2024-02-21T00:14:31;5.33;90.20
72126;SHT31;59999;51.676;22.650;2024-02-21T00:16:56;5.36;90.19
72126;SHT31;59999;51.676;22.650;2024-02-21T00:19:22;5.38;90.12
72126;SHT31;59999;51.676;22.650;2024-02-21T00:21:48;5.40;90.07
72126;SHT31;59999;51.676;22.650;2024-02-21T00:24:14;5.36;90.06
72126;SHT31;59999;51.676;22.650;2024-02-21T00:26:40;5.38;90.13
72126;SHT31;59999;51.676;22.650;2024-02-21T00:29:06;5.38;90.07
72126;SHT31;59999;51.676;22.650;2024-02-21T00:31:31;5.38;90.10
72126;SHT31;59999;51.676;22.650;2024-02-21T00:33:57;5.35;90.04
72126;SHT31;59999;51.676;22.650;2024-02-21T00:36:23;5.35;89.83
72126;SHT31;59999;51.676;22.650;2024-02-21T00:38:49;5.35;89.65
72126;SHT31;59999;51.676;22.650;2024-02-21T00:41:15;5.33;89.18
72126;SHT31;59999;51.676;22.650;2024-02-21T00:43:41;5.35;88.99
72126;SHT31;59999;51.676;22.650;2024-02-21T00:46:07;5.33;88.40
72126;SHT31;59999;51.676;22.650;2024-02-21T00:48:33;5.30;88.09
72126;SHT31;59999;51.676;22.650;2024-02-21T00:50:59;5.32;87.52
72126;SHT31;59999;51.676;22.650;2024-02-21T00:53:25;5.28;87.07
72126;SHT31;59999;51.676;22.650;2024-02-21T00:55:51;5.23;86.74
72126;SHT31;59999;51.676;22.650;2024-02-21T00:58:17;5.25;86.90
72126;SHT31;59999;51.676;22.650;2024-02-21T01:00:43;5.23;86.32
72126;SHT31;59999;51.676;22.650;2024-02-21T01:03:09;5.21;86.32
72126;SHT31;59999;51.676;22.650;2024-02-21T01:05:34;5.22;86.22
72126;SHT31;59999;51.676;22.650;2024-02-21T01:08:00;5.21;86.08
72126;SHT31;59999;51.676;22.650;2024-02-21T01:10:26;5.16;85.37
72126;SHT31;59999;51.676;22.650;2024-02-21T01:12:52;5.18;85.49
72126;SHT31;59999;51.676;22.650;2024-02-21T01:15:17;5.11;84.98
72126;SHT31;59999;51.676;22.650;2024-02-21T01:17:44;5.09;84.96
72126;SHT31;59999;51.676;22.650;2024-02-21T01:20:09;5.04;84.59
72126;SHT31;59999;51.676;22.650;2024-02-21T01:22:36;5.04;84.03
72126;SHT31;59999;51.676;22.650;2024-02-21T01:25:01;5.02;83.85
72126;SHT31;59999;51.676;22.650;2024-02-21T01:27:27;5.01;83.99
72126;SHT31;59999;51.676;22.650;2024-02-21T01:29:53;4.96;83.56
72126;SHT31;59999;51.676;22.650;2024-02-21T01:32:19;4.95;83.65
72126;SHT31;59999;51.676;22.650;2024-02-21T01:34:45;4.94;83.54
72126;SHT31;59999;51.676;22.650;2024-02-21T01:37:10;4.92;83.49
72126;SHT31;59999;51.676;22.650;2024-02-21T01:39:37;4.89;83.67
72126;SHT31;59999;51.676;22.650;2024-02-21T01:42:03;4.85;83.39
72126;SHT31;59999;51.676;22.650;2024-02-21T01:44:29;4.84;83.40
72126;SHT31;59999;51.676;22.650;2024-02-21T01:46:55;4.84;83.48
72126;SHT31;59999;51.676;22.650;2024-02-21T01:49:21;4.82;83.50
72126;SHT31;59999;51.676;22.650;2024-02-21T01:51:47;4.82;83.62
72126;SHT31;59999;51.676;22.650;2024-02-21T01:54:15;4.82;83.41
72126;SHT31;59999;51.676;22.650;2024-02-21T01:56:42;4.84;83.38
72126;SHT31;59999;51.676;22.650;2024-02-21T01:59:09;4.84;83.58
72126;SHT31;59999;51.676;22.650;2024-02-21T02:01:35;4.84;83.37
72126;SHT31;59999;51.676;22.650;2024-02-21T02:04:00;4.84;83.57
72126;SHT31;59999;51.676;22.650;2024-02-21T02:06:27;4.84;83.50
72126;SHT31;59999;51.676;22.650;2024-02-21T02:08:53;4.88;83.55
72126;SHT31;59999;51.676;22.650;2024-02-21T02:11:20;4.87;83.51
72126;SHT31;59999;51.676;22.650;2024-02-21T02:13:45;4.87;83.59
72126;SHT31;59999;51.676;22.650;2024-02-21T02:16:11;4.87;83.52
72126;SHT31;59999;51.676;22.650;2024-02-21T02:18:37;4.89;83.54
72126;SHT31;59999;51.676;22.650;2024-02-21T02:21:05;4.87;83.67
72126;SHT31;59999;51.676;22.650;2024-02-21T02:23:36;4.82;83.89
72126;SHT31;59999;51.676;22.650;2024-02-21T02:26:02;4.84;83.95
72126;SHT31;59999;51.676;22.650;2024-02-21T02:28:28;4.82;84.07
72126;SHT31;59999;51.676;22.650;2024-02-21T02:30:54;4.81;84.15
72126;SHT31;59999;51.676;22.650;2024-02-21T02:33:20;4.80;84.35
72126;SHT31;59999;51.676;22.650;2024-02-21T02:35:46;4.81;84.42
72126;SHT31;59999;51.676;22.650;2024-02-21T02:38:12;4.80;84.47
72126;SHT31;59999;51.676;22.650;2024-02-21T02:40:39;4.77;84.61
72126;SHT31;59999;51.676;22.650;2024-02-21T02:43:06;4.77;84.62
72126;SHT31;59999;51.676;22.650;2024-02-21T02:45:32;4.74;84.64
72126;SHT31;59999;51.676;22.650;2024-02-21T02:47:58;4.71;84.75
72126;SHT31;59999;51.676;22.650;2024-02-21T02:50:25;4.70;84.84
72126;SHT31;59999;51.676;22.650;2024-02-21T02:52:52;4.73;84.91
72126;SHT31;59999;51.676;22.650;2024-02-21T02:55:18;4.71;84.79
72126;SHT31;59999;51.676;22.650;2024-02-21T02:57:44;4.71;84.87
72126;SHT31;59999;51.676;22.650;2024-02-21T03:00:11;4.70;84.75
72126;SHT31;59999;51.676;22.650;2024-02-21T03:02:41;4.70;84.88
72126;SHT31;59999;51.676;22.650;2024-02-21T03:05:15;4.64;84.94
72126;SHT31;59999;51.676;22.650;2024-02-21T03:07:42;4.64;84.95
72126;SHT31;59999;51.676;22.650;2024-02-21T03:10:09;4.63;84.98
72126;SHT31;59999;51.676;22.650;2024-02-21T03:12:35;4.60;84.88
72126;SHT31;59999;51.676;22.650;2024-02-21T03:15:01;4.61;84.94
72126;SHT31;59999;51.676;22.650;2024-02-21T03:17:27;4.57;84.89
72126;SHT31;59999;51.676;22.650;2024-02-21T03:19:53;4.58;84.97
72126;SHT31;59999;51.676;22.650;2024-02-21T03:22:21;4.56;85.02
72126;SHT31;59999;51.676;22.650;2024-02-21T03:24:47;4.57;84.94
72126;SHT31;59999;51.676;22.650;2024-02-21T03:27:12;4.56;85.11
72126;SHT31;59999;51.676;22.650;2024-02-21T03:29:38;4.50;85.15
72126;SHT31;59999;51.676;22.650;2024-02-21T03:32:04;4.50;85.39
72126;SHT31;59999;51.676;22.650;2024-02-21T03:34:30;4.50;85.60
72126;SHT31;59999;51.676;22.650;2024-02-21T03:36:56;4.47;85.80
72126;SHT31;59999;51.676;22.650;2024-02-21T03:39:21;4.47;85.90
72126;SHT31;59999;51.676;22.650;2024-02-21T03:41:47;4.50;85.99
72126;SHT31;59999;51.676;22.650;2024-02-21T03:44:13;4.52;86.11
72126;SHT31;59999;51.676;22.650;2024-02-21T03:46:39;4.47;86.23
72126;SHT31;59999;51.676;22.650;2024-02-21T03:49:05;4.47;86.42
72126;SHT31;59999;51.676;22.650;2024-02-21T03:51:30;4.46;86.58
72126;SHT31;59999;51.676;22.650;2024-02-21T03:53:57;4.49;86.41
72126;SHT31;59999;51.676;22.650;2024-02-21T03:56:22;4.44;86.54
72126;SHT31;59999;51.676;22.650;2024-02-21T03:58:48;4.43;86.84
72126;SHT31;59999;51.676;22.650;2024-02-21T04:01:15;4.44;86.58
72126;SHT31;59999;51.676;22.650;2024-02-21T04:03:42;4.43;86.74
72126;SHT31;59999;51.676;22.650;2024-02-21T04:06:08;4.40;86.91
72126;SHT31;59999;51.676;22.650;2024-02-21T04:08:34;4.43;87.03
72126;SHT31;59999;51.676;22.650;2024-02-21T04:11:00;4.42;87.30
72126;SHT31;59999;51.676;22.650;2024-02-21T04:13:26;4.39;87.62
72126;SHT31;59999;51.676;22.650;2024-02-21T04:15:52;4.39;87.93
72126;SHT31;59999;51.676;22.650;2024-02-21T04:18:18;4.33;88.16
72126;SHT31;59999;51.676;22.650;2024-02-21T04:20:43;4.32;88.30
72126;SHT31;59999;51.676;22.650;2024-02-21T04:23:10;4.28;88.42
72126;SHT31;59999;51.676;22.650;2024-02-21T04:25:36;4.32;88.37
72126;SHT31;59999;51.676;22.650;2024-02-21T04:28:02;4.26;88.58
72126;SHT31;59999;51.676;22.650;2024-02-21T04:30:28;4.26;88.69
72126;SHT31;59999;51.676;22.650;2024-02-21T04:32:54;4.26;88.84
72126;SHT31;59999;51.676;22.650;2024-02-21T04:35:20;4.26;88.98
72126;SHT31;59999;51.676;22.650;2024-02-21T04:37:46;4.23;89.23
72126;SHT31;59999;51.676;22.650;2024-02-21T04:40:12;4.23;89.31
72126;SHT31;59999;51.676;22.650;2024-02-21T04:42:38;4.24;89.39
72126;SHT31;59999;51.676;22.650;2024-02-21T04:45:04;4.32;89.44
72126;SHT31;59999;51.676;22.650;2024-02-21T04:47:31;4.28;89.43
72126;SHT31;59999;51.676;22.650;2024-02-21T04:49:56;4.24;89.51
72126;SHT31;59999;51.676;22.650;2024-02-21T04:52:22;4.20;89.64
72126;SHT31;59999;51.676;22.650;2024-02-21T04:54:48;4.22;89.77
72126;SHT31;59999;51.676;22.650;2024-02-21T04:57:14;4.22;89.91
72126;SHT31;59999;51.676;22.650;2024-02-21T04:59:45;4.19;89.99
72126;SHT31;59999;51.676;22.650;2024-02-21T05:02:13;4.22;90.03
72126;SHT31;59999;51.676;22.650;2024-02-21T05:04:39;4.22;90.11
72126;SHT31;59999;51.676;22.650;2024-02-21T05:07:07;4.19;90.15
72126;SHT31;59999;51.676;22.650;2024-02-21T05:09:33;4.20;90.19
72126;SHT31;59999;51.676;22.650;2024-02-21T05:11:59;4.22;90.22
72126;SHT31;59999;51.676;22.650;2024-02-21T05:14:28;4.20;90.27
72126;SHT31;59999;51.676;22.650;2024-02-21T05:16:54;4.22;90.22
72126;SHT31;59999;51.676;22.650;2024-02-21T05:19:19;4.20;90.31
72126;SHT31;59999;51.676;22.650;2024-02-21T05:21:45;4.22;90.38
72126;SHT31;59999;51.676;22.650;2024-02-21T05:24:11;4.22;90.36
72126;SHT31;59999;51.676;22.650;2024-02-21T05:26:37;4.22;90.43
72126;SHT31;59999;51.676;22.650;2024-02-21T05:29:03;4.17;90.50
72126;SHT31;59999;51.676;22.650;2024-02-21T05:34:19;4.20;90.58
72126;SHT31;59999;51.676;22.650;2024-02-21T05:36:45;4.19;90.58
72126;SHT31;59999;51.676;22.650;2024-02-21T05:39:12;4.20;90.62
72126;SHT31;59999;51.676;22.650;2024-02-21T05:41:37;4.20;90.60
72126;SHT31;59999;51.676;22.650;2024-02-21T05:44:03;4.22;90.57
72126;SHT31;59999;51.676;22.650;2024-02-21T05:46:29;4.28;90.48
72126;SHT31;59999;51.676;22.650;2024-02-21T05:48:55;4.26;90.37
72126;SHT31;59999;51.676;22.650;2024-02-21T05:51:20;4.26;90.28
72126;SHT31;59999;51.676;22.650;2024-02-21T05:53:46;4.29;90.30
72126;SHT31;59999;51.676;22.650;2024-02-21T05:56:15;4.34;90.17
72126;SHT31;59999;51.676;22.650;2024-02-21T05:58:42;4.30;90.12
72126;SHT31;59999;51.676;22.650;2024-02-21T06:01:08;4.32;90.16
72126;SHT31;59999;51.676;22.650;2024-02-21T06:03:34;4.32;90.12
72126;SHT31;59999;51.676;22.650;2024-02-21T06:06:00;4.32;90.05
72126;SHT31;59999;51.676;22.650;2024-02-21T06:08:26;4.30;90.19
72126;SHT31;59999;51.676;22.650;2024-02-21T06:10:52;4.32;90.26
72126;SHT31;59999;51.676;22.650;2024-02-21T06:13:21;4.30;90.38
72126;SHT31;59999;51.676;22.650;2024-02-21T06:15:47;4.34;90.44
72126;SHT31;59999;51.676;22.650;2024-02-21T06:18:13;4.34;90.43
72126;SHT31;59999;51.676;22.650;2024-02-21T06:20:39;4.36;90.44
72126;SHT31;59999;51.676;22.650;2024-02-21T06:23:06;4.37;90.34
72126;SHT31;59999;51.676;22.650;2024-02-21T06:25:32;4.42;90.19
72126;SHT31;59999;51.676;22.650;2024-02-21T06:27:58;4.46;89.93
72126;SHT31;59999;51.676;22.650;2024-02-21T06:30:23;4.49;89.91
72126;SHT31;59999;51.676;22.650;2024-02-21T06:32:49;4.49;89.93
72126;SHT31;59999;51.676;22.650;2024-02-21T06:35:15;4.50;90.06
72126;SHT31;59999;51.676;22.650;2024-02-21T06:37:42;4.54;89.98
72126;SHT31;59999;51.676;22.650;2024-02-21T06:40:10;4.58;89.77
72126;SHT31;59999;51.676;22.650;2024-02-21T06:42:36;4.64;89.61
72126;SHT31;59999;51.676;22.650;2024-02-21T06:45:02;4.64;89.40
72126;SHT31;59999;51.676;22.650;2024-02-21T06:47:28;4.60;89.43
72126;SHT31;59999;51.676;22.650;2024-02-21T06:49:54;4.61;89.41
72126;SHT31;59999;51.676;22.650;2024-02-21T06:52:20;4.58;89.42
72126;SHT31;59999;51.676;22.650;2024-02-21T06:54:46;4.63;89.56
72126;SHT31;59999;51.676;22.650;2024-02-21T06:57:13;4.58;89.38
72126;SHT31;59999;51.676;22.650;2024-02-21T06:59:40;4.58;89.43
72126;SHT31;59999;51.676;22.650;2024-02-21T07:02:06;4.61;89.52
72126;SHT31;59999;51.676;22.650;2024-02-21T07:04:32;4.64;89.35
72126;SHT31;59999;51.676;22.650;2024-02-21T07:06:58;4.68;89.20
72126;SHT31;59999;51.676;22.650;2024-02-21T07:09:23;4.60;89.30
72126;SHT31;59999;51.676;22.650;2024-02-21T07:11:49;4.58;89.45
72126;SHT31;59999;51.676;22.650;2024-02-21T07:14:15;4.58;89.60
72126;SHT31;59999;51.676;22.650;2024-02-21T07:16:41;4.64;89.94
72126;SHT31;59999;51.676;22.650;2024-02-21T07:19:07;4.70;90.11
72126;SHT31;59999;51.676;22.650;2024-02-21T07:21:33;4.74;90.18
72126;SHT31;59999;51.676;22.650;2024-02-21T07:23:58;4.75;89.92
72126;SHT31;59999;51.676;22.650;2024-02-21T07:26:24;4.78;89.60
72126;SHT31;59999;51.676;22.650;2024-02-21T07:28:50;4.84;89.57
72126;SHT31;59999;51.676;22.650;2024-02-21T07:31:16;4.89;89.10
72126;SHT31;59999;51.676;22.650;2024-02-21T07:33:42;4.91;88.85
72126;SHT31;59999;51.676;22.650;2024-02-21T07:36:10;4.89;88.69
72126;SHT31;59999;51.676;22.650;2024-02-21T07:38:36;4.92;88.80
72126;SHT31;59999;51.676;22.650;2024-02-21T07:41:03;4.89;88.61
72126;SHT31;59999;51.676;22.650;2024-02-21T07:43:29;4.91;88.50
72126;SHT31;59999;51.676;22.650;2024-02-21T07:45:56;4.91;88.52
72126;SHT31;59999;51.676;22.650;2024-02-21T07:48:21;4.96;88.74
72126;SHT31;59999;51.676;22.650;2024-02-21T07:50:51;5.04;88.66
72126;SHT31;59999;51.676;22.650;2024-02-21T07:53:16;5.15;87.56
72126;SHT31;59999;51.676;22.650;2024-02-21T07:55:42;5.23;87.37
72126;SHT31;59999;51.676;22.650;2024-02-21T07:58:08;5.38;86.97
72126;SHT31;59999;51.676;22.650;2024-02-21T08:00:34;5.43;85.80
72126;SHT31;59999;51.676;22.650;2024-02-21T08:02:59;5.53;85.18
72126;SHT31;59999;51.676;22.650;2024-02-21T08:05:25;5.57;85.09
72126;SHT31;59999;51.676;22.650;2024-02-21T08:07:51;5.64;85.38
72126;SHT31;59999;51.676;22.650;2024-02-21T08:10:17;5.69;84.88
72126;SHT31;59999;51.676;22.650;2024-02-21T08:12:43;5.75;84.58
72126;SHT31;59999;51.676;22.650;2024-02-21T08:15:09;5.83;84.44
72126;SHT31;59999;51.676;22.650;2024-02-21T08:17:36;5.84;84.09
72126;SHT31;59999;51.676;22.650;2024-02-21T08:20:04;5.91;83.72
72126;SHT31;59999;51.676;22.650;2024-02-21T08:22:30;6.08;84.24
72126;SHT31;59999;51.676;22.650;2024-02-21T08:24:56;6.24;83.24
72126;SHT31;59999;51.676;22.650;2024-02-21T08:27:23;6.48;83.39
72126;SHT31;59999;51.676;22.650;2024-02-21T08:29:49;6.59;81.62
72126;SHT31;59999;51.676;22.650;2024-02-21T08:32:14;6.66;81.14
72126;SHT31;59999;51.676;22.650;2024-02-21T08:34:40;6.70;79.89
72126;SHT31;59999;51.676;22.650;2024-02-21T08:37:06;6.66;79.89
72126;SHT31;59999;51.676;22.650;2024-02-21T08:39:32;6.63;79.74
72126;SHT31;59999;51.676;22.650;2024-02-21T08:41:58;6.65;80.62
72126;SHT31;59999;51.676;22.650;2024-02-21T08:44:24;6.62;79.81
72126;SHT31;59999;51.676;22.650;2024-02-21T08:46:51;6.62;80.11
72126;SHT31;59999;51.676;22.650;2024-02-21T08:49:17;6.67;80.31
72126;SHT31;59999;51.676;22.650;2024-02-21T08:51:43;6.72;81.07
72126;SHT31;59999;51.676;22.650;2024-02-21T08:54:09;6.65;81.44
72126;SHT31;59999;51.676;22.650;2024-02-21T08:56:35;6.62;82.12
72126;SHT31;59999;51.676;22.650;2024-02-21T08:59:01;6.70;81.81
72126;SHT31;59999;51.676;22.650;2024-02-21T09:01:27;6.69;81.65
72126;SHT31;59999;51.676;22.650;2024-02-21T09:03:53;6.72;81.21
72126;SHT31;59999;51.676;22.650;2024-02-21T09:06:19;6.72;81.37
72126;SHT31;59999;51.676;22.650;2024-02-21T09:08:48;6.59;80.83
72126;SHT31;59999;51.676;22.650;2024-02-21T09:11:14;6.56;81.45
72126;SHT31;59999;51.676;22.650;2024-02-21T09:13:40;6.60;81.00
72126;SHT31;59999;51.676;22.650;2024-02-21T09:16:06;6.65;80.59
72126;SHT31;59999;51.676;22.650;2024-02-21T09:18:32;6.66;80.92
72126;SHT31;59999;51.676;22.650;2024-02-21T09:20:58;6.69;80.66
72126;SHT31;59999;51.676;22.650;2024-02-21T09:23:24;6.75;80.34
72126;SHT31;59999;51.676;22.650;2024-02-21T09:25:50;6.80;80.64
72126;SHT31;59999;51.676;22.650;2024-02-21T09:28:16;6.88;81.08
72126;SHT31;59999;51.676;22.650;2024-02-21T09:30:42;6.93;81.24
72126;SHT31;59999;51.676;22.650;2024-02-21T09:33:07;6.96;80.29
72126;SHT31;59999;51.676;22.650;2024-02-21T09:35:33;6.94;80.57
72126;SHT31;59999;51.676;22.650;2024-02-21T09:37:59;6.81;80.18
72126;SHT31;59999;51.676;22.650;2024-02-21T09:40:25;6.73;81.07
72126;SHT31;59999;51.676;22.650;2024-02-21T09:43:04;6.72;81.28
72126;SHT31;59999;51.676;22.650;2024-02-21T09:45:33;6.73;81.60
72126;SHT31;59999;51.676;22.650;2024-02-21T09:50:40;6.66;80.85
72126;SHT31;59999;51.676;22.650;2024-02-21T09:53:12;6.57;80.80
72126;SHT31;59999;51.676;22.650;2024-02-21T09:55:38;6.56;81.37
72126;SHT31;59999;51.676;22.650;2024-02-21T09:58:07;6.56;81.73
72126;SHT31;59999;51.676;22.650;2024-02-21T10:00:35;6.69;81.99
72126;SHT31;59999;51.676;22.650;2024-02-21T10:03:01;6.76;81.76
72126;SHT31;59999;51.676;22.650;2024-02-21T10:05:36;6.88;81.00
72126;SHT31;59999;51.676;22.650;2024-02-21T10:08:03;6.98;81.10
72126;SHT31;59999;51.676;22.650;2024-02-21T10:10:30;7.01;80.17
72126;SHT31;59999;51.676;22.650;2024-02-21T10:13:05;7.04;79.94
72126;SHT31;59999;51.676;22.650;2024-02-21T10:15:31;7.11;79.86
72126;SHT31;59999;51.676;22.650;2024-02-21T10:18:01;7.08;80.27
72126;SHT31;59999;51.676;22.650;2024-02-21T10:20:29;7.05;80.13
72126;SHT31;59999;51.676;22.650;2024-02-21T10:23:05;7.09;80.13
72126;SHT31;59999;51.676;22.650;2024-02-21T10:25:37;7.03;80.33
72126;SHT31;59999;51.676;22.650;2024-02-21T10:28:15;7.08;80.54
72126;SHT31;59999;51.676;22.650;2024-02-21T10:30:51;7.07;80.67
72126;SHT31;59999;51.676;22.650;2024-02-21T10:33:18;7.09;80.76
72126;SHT31;59999;51.676;22.650;2024-02-21T10:35:47;7.07;80.88
72126;SHT31;59999;51.676;22.650;2024-02-21T10:38:13;7.08;80.92
72126;SHT31;59999;51.676;22.650;2024-02-21T10:40:39;7.09;81.45
72126;SHT31;59999;51.676;22.650;2024-02-21T10:43:05;7.12;81.41
72126;SHT31;59999;51.676;22.650;2024-02-21T10:45:36;7.15;81.52
72126;SHT31;59999;51.676;22.650;2024-02-21T10:48:11;7.19;81.15
72126;SHT31;59999;51.676;22.650;2024-02-21T10:50:56;7.24;81.56
72126;SHT31;59999;51.676;22.650;2024-02-21T10:53:34;7.34;81.20
72126;SHT31;59999;51.676;22.650;2024-02-21T10:56:11;7.44;80.79
72126;SHT31;59999;51.676;22.650;2024-02-21T10:58:41;7.49;80.70
72126;SHT31;59999;51.676;22.650;2024-02-21T11:01:07;7.56;80.52
72126;SHT31;59999;51.676;22.650;2024-02-21T11:03:34;7.63;80.01
72126;SHT31;59999;51.676;22.650;2024-02-21T11:06:01;7.69;79.65
72126;SHT31;59999;51.676;22.650;2024-02-21T11:08:28;7.75;79.34
72126;SHT31;59999;51.676;22.650;2024-02-21T11:10:57;7.82;79.02
72126;SHT31;59999;51.676;22.650;2024-02-21T11:13:35;7.89;78.89
72126;SHT31;59999;51.676;22.650;2024-02-21T11:16:11;7.94;77.98
72126;SHT31;59999;51.676;22.650;2024-02-21T11:18:37;7.96;78.23
72126;SHT31;59999;51.676;22.650;2024-02-21T11:21:04;8.01;77.79
72126;SHT31;59999;51.676;22.650;2024-02-21T11:23:35;8.08;78.32
72126;SHT31;59999;51.676;22.650;2024-02-21T11:26:05;8.15;78.07
72126;SHT31;59999;51.676;22.650;2024-02-21T11:28:32;8.15;79.55
72126;SHT31;59999;51.676;22.650;2024-02-21T11:31:27;8.04;79.60
72126;SHT31;59999;51.676;22.650;2024-02-21T11:33:54;8.04;80.58
72126;SHT31;59999;51.676;22.650;2024-02-21T11:36:26;8.10;80.64
72126;SHT31;59999;51.676;22.650;2024-02-21T11:38:52;8.13;80.20
72126;SHT31;59999;51.676;22.650;2024-02-21T11:41:31;8.23;79.12
72126;SHT31;59999;51.676;22.650;2024-02-21T11:44:39;8.31;79.42
72126;SHT31;59999;51.676;22.650;2024-02-21T11:47:08;8.42;78.48
72126;SHT31;59999;51.676;22.650;2024-02-21T11:49:52;8.51;78.16
72126;SHT31;59999;51.676;22.650;2024-02-21T11:52:26;8.51;78.67
72126;SHT31;59999;51.676;22.650;2024-02-21T11:54:53;8.41;78.16
72126;SHT31;59999;51.676;22.650;2024-02-21T11:57:20;8.40;77.98
72126;SHT31;59999;51.676;22.650;2024-02-21T11:59:46;8.45;78.51
72126;SHT31;59999;51.676;22.650;2024-02-21T12:02:13;8.49;77.38
72126;SHT31;59999;51.676;22.650;2024-02-21T12:04:39;8.42;76.35
72126;SHT31;59999;51.676;22.650;2024-02-21T12:07:05;8.40;77.62
72126;SHT31;59999;51.676;22.650;2024-02-21T12:09:31;8.41;77.10
72126;SHT31;59999;51.676;22.650;2024-02-21T12:12:03;8.41;76.41
72126;SHT31;59999;51.676;22.650;2024-02-21T12:14:32;8.41;75.73
72126;SHT31;59999;51.676;22.650;2024-02-21T12:16:59;8.38;75.71
72126;SHT31;59999;51.676;22.650;2024-02-21T12:19:25;8.40;76.69
72126;SHT31;59999;51.676;22.650;2024-02-21T12:21:51;8.38;76.29
72126;SHT31;59999;51.676;22.650;2024-02-21T12:24:27;8.31;75.68
72126;SHT31;59999;51.676;22.650;2024-02-21T12:26:54;8.33;76.21
72126;SHT31;59999;51.676;22.650;2024-02-21T12:29:22;8.35;75.76
72126;SHT31;59999;51.676;22.650;2024-02-21T12:31:50;8.37;75.72
72126;SHT31;59999;51.676;22.650;2024-02-21T12:34:16;8.42;77.24
72126;SHT31;59999;51.676;22.650;2024-02-21T12:36:43;8.37;76.82
72126;SHT31;59999;51.676;22.650;2024-02-21T12:39:10;8.41;77.39
72126;SHT31;59999;51.676;22.650;2024-02-21T12:41:37;8.42;76.75
72126;SHT31;59999;51.676;22.650;2024-02-21T12:44:10;8.41;76.42
72126;SHT31;59999;51.676;22.650;2024-02-21T12:46:39;8.40;76.17
72126;SHT31;59999;51.676;22.650;2024-02-21T12:49:06;8.41;77.11
72126;SHT31;59999;51.676;22.650;2024-02-21T12:51:33;8.42;76.71
72126;SHT31;59999;51.676;22.650;2024-02-21T12:54:00;8.49;76.51
72126;SHT31;59999;51.676;22.650;2024-02-21T12:56:26;8.51;76.23
72126;SHT31;59999;51.676;22.650;2024-02-21T12:58:58;8.55;76.54
72126;SHT31;59999;51.676;22.650;2024-02-21T13:01:24;8.54;76.39
72126;SHT31;59999;51.676;22.650;2024-02-21T13:03:51;8.56;77.84
72126;SHT31;59999;51.676;22.650;2024-02-21T13:06:17;8.55;75.90
72126;SHT31;59999;51.676;22.650;2024-02-21T13:08:44;8.65;77.00
72126;SHT31;59999;51.676;22.650;2024-02-21T13:11:12;8.66;76.63
72126;SHT31;59999;51.676;22.650;2024-02-21T13:13:38;8.63;76.10
72126;SHT31;59999;51.676;22.650;2024-02-21T13:16:04;8.59;76.20
72126;SHT31;59999;51.676;22.650;2024-02-21T13:18:30;8.62;75.41
72126;SHT31;59999;51.676;22.650;2024-02-21T13:20:58;8.58;76.57
72126;SHT31;59999;51.676;22.650;2024-02-21T13:23:23;8.54;77.73
72126;SHT31;59999;51.676;22.650;2024-02-21T13:25:49;8.49;76.70
72126;SHT31;59999;51.676;22.650;2024-02-21T13:28:16;8.35;77.01
72126;SHT31;59999;51.676;22.650;2024-02-21T13:30:42;8.28;78.13
72126;SHT31;59999;51.676;22.650;2024-02-21T13:33:08;8.24;78.07
72126;SHT31;59999;51.676;22.650;2024-02-21T13:35:35;8.18;78.40
72126;SHT31;59999;51.676;22.650;2024-02-21T13:38:03;8.13;78.85
72126;SHT31;59999;51.676;22.650;2024-02-21T13:40:29;8.05;79.66
72126;SHT31;59999;51.676;22.650;2024-02-21T13:42:54;8.03;80.30
72126;SHT31;59999;51.676;22.650;2024-02-21T13:45:20;8.03;80.61
72126;SHT31;59999;51.676;22.650;2024-02-21T13:47:46;8.03;79.97
72126;SHT31;59999;51.676;22.650;2024-02-21T13:50:13;8.01;79.63
72126;SHT31;59999;51.676;22.650;2024-02-21T13:52:40;7.98;79.90
72126;SHT31;59999;51.676;22.650;2024-02-21T13:55:06;7.97;80.09
72126;SHT31;59999;51.676;22.650;2024-02-21T13:57:36;7.91;79.89
72126;SHT31;59999;51.676;22.650;2024-02-21T14:00:03;7.87;80.21
72126;SHT31;59999;51.676;22.650;2024-02-21T14:02:30;7.84;80.50
72126;SHT31;59999;51.676;22.650;2024-02-21T14:04:56;7.83;80.49
72126;SHT31;59999;51.676;22.650;2024-02-21T14:07:22;7.77;81.40
72126;SHT31;59999;51.676;22.650;2024-02-21T14:09:48;7.79;80.94
72126;SHT31;59999;51.676;22.650;2024-02-21T14:12:15;7.83;80.94
72126;SHT31;59999;51.676;22.650;2024-02-21T14:14:43;7.77;81.27
72126;SHT31;59999;51.676;22.650;2024-02-21T14:17:09;7.72;81.87
72126;SHT31;59999;51.676;22.650;2024-02-21T14:19:35;7.67;81.99
72126;SHT31;59999;51.676;22.650;2024-02-21T14:22:01;7.63;82.10
72126;SHT31;59999;51.676;22.650;2024-02-21T14:24:28;7.63;82.29
72126;SHT31;59999;51.676;22.650;2024-02-21T14:26:54;7.56;82.73
72126;SHT31;59999;51.676;22.650;2024-02-21T14:29:20;7.52;82.31
72126;SHT31;59999;51.676;22.650;2024-02-21T14:31:47;7.51;82.04
72126;SHT31;59999;51.676;22.650;2024-02-21T14:34:13;7.45;82.39
72126;SHT31;59999;51.676;22.650;2024-02-21T14:36:38;7.39;82.65
72126;SHT31;59999;51.676;22.650;2024-02-21T14:39:06;7.38;83.36
72126;SHT31;59999;51.676;22.650;2024-02-21T14:41:32;7.35;83.36
72126;SHT31;59999;51.676;22.650;2024-02-21T14:43:58;7.32;83.75
72126;SHT31;59999;51.676;22.650;2024-02-21T14:46:25;7.28;83.91
72126;SHT31;59999;51.676;22.650;2024-02-21T14:48:54;7.21;84.54
72126;SHT31;59999;51.676;22.650;2024-02-21T14:51:20;7.21;84.79
72126;SHT31;59999;51.676;22.650;2024-02-21T14:53:46;7.15;85.09
72126;SHT31;59999;51.676;22.650;2024-02-21T14:56:13;7.15;85.35
72126;SHT31;59999;51.676;22.650;2024-02-21T14:58:41;7.11;85.50
72126;SHT31;59999;51.676;22.650;2024-02-21T15:01:10;7.09;85.77
72126;SHT31;59999;51.676;22.650;2024-02-21T15:03:36;7.05;85.97
72126;SHT31;59999;51.676;22.650;2024-02-21T15:06:02;7.09;85.81
72126;SHT31;59999;51.676;22.650;2024-02-21T15:08:28;7.07;86.12
72126;SHT31;59999;51.676;22.650;2024-02-21T15:10:54;7.05;86.28
72126;SHT31;59999;51.676;22.650;2024-02-21T15:13:21;7.04;86.02
72126;SHT31;59999;51.676;22.650;2024-02-21T15:15:48;7.03;86.22
72126;SHT31;59999;51.676;22.650;2024-02-21T15:18:14;6.98;86.75
72126;SHT31;59999;51.676;22.650;2024-02-21T15:20:44;6.97;86.87
72126;SHT31;59999;51.676;22.650;2024-02-21T15:23:10;6.90;87.01
72126;SHT31;59999;51.676;22.650;2024-02-21T15:25:36;6.86;87.17
72126;SHT31;59999;51.676;22.650;2024-02-21T15:28:03;6.87;87.22
72126;SHT31;59999;51.676;22.650;2024-02-21T15:30:30;6.80;87.31
72126;SHT31;59999;51.676;22.650;2024-02-21T15:32:59;6.80;87.39
72126;SHT31;59999;51.676;22.650;2024-02-21T15:35:31;6.76;87.34